PWSweather.com
Personal Weather Stations
Station Observations
KCOGRAND2
Redlands, Southcamp Road & Dakota Circle, Grand Junction, CO 81507

Redlands, Southcamp Road & Dakota CircleGrand Junction, CO 81507

Lat: 39.055, Lon: -108.637

Elevation: 4870

Station Type: RadioShack WX200

High Low Average
Temperature 65.8°F18.8°C 50.7°F10.4°C 57.3°F14.1°C
Dew Point 46.8°F8.2°C 6.1°F-14.4°C 38.9°F3.8°C
Winds 16.0 mph 25.7 kmh Calm Calm 8.0 mph WSW12.9 kmh WSW
Wind Gusts 31.8 mph51.2 kmh -- 14.0 mph22.5 kmh
Humidity 81% 12% 63%
Pressure 24.98 in845.9 mb 24.86 in841.9 mb -
Precipitation 0.00 in0.0 mm - -
Hour Temp Dew Point Humidity Winds Wind Gusts Pressure Precip Precip Rate Daily Precip Total
12:01 AM 53.8°F12.1°C 43.5°F6.4°C 68% 4.0 mph NNW6.4 kmh NNW 6.9 mph11.1 kmh 24.86 in841.9 mb 0.00 in0.0 mm 0.00 in/hr0.0 mm/hr 0.00 in0.0 mm
12:06 AM 53.8°F12.1°C 43.5°F6.4°C 68% 2.0 mph NW3.2 kmh NW 4.5 mph7.2 kmh 24.86 in841.9 mb 0.00 in0.0 mm 0.00 in/hr0.0 mm/hr 0.00 in0.0 mm
12:11 AM 53.8°F12.1°C 43.9°F6.6°C 69% Calm Calm 3.6 mph5.8 kmh 24.86 in841.9 mb 0.00 in0.0 mm 0.00 in/hr0.0 mm/hr 0.00 in0.0 mm
12:17 AM 53.6°F12.0°C 44.1°F6.7°C 70% Calm Calm 4.0 mph6.4 kmh 24.86 in841.9 mb 0.00 in0.0 mm 0.00 in/hr0.0 mm/hr 0.00 in0.0 mm
12:22 AM 53.4°F11.9°C 44.2°F6.8°C 71% 1.0 mph WNW1.6 kmh WNW 5.4 mph8.7 kmh 24.86 in841.9 mb 0.00 in0.0 mm 0.00 in/hr0.0 mm/hr 0.00 in0.0 mm
12:27 AM 53.4°F11.9°C 44.2°F6.8°C 71% 3.0 mph WNW4.8 kmh WNW 5.8 mph9.3 kmh 24.86 in841.9 mb 0.00 in0.0 mm 0.00 in/hr0.0 mm/hr 0.00 in0.0 mm
12:32 AM 53.4°F11.9°C 44.2°F6.8°C 71% 3.0 mph WNW4.8 kmh WNW 6.3 mph10.1 kmh 24.86 in841.9 mb 0.00 in0.0 mm 0.00 in/hr0.0 mm/hr 0.00 in0.0 mm
12:37 AM 53.4°F11.9°C 44.2°F6.8°C 71% 4.0 mph NW6.4 kmh NW 6.7 mph10.8 kmh 24.86 in841.9 mb 0.00 in0.0 mm 0.00 in/hr0.0 mm/hr 0.00 in0.0 mm
12:42 AM 53.4°F11.9°C 44.2°F6.8°C 71% 4.0 mph NW6.4 kmh NW 6.9 mph11.1 kmh 24.86 in841.9 mb 0.00 in0.0 mm 0.00 in/hr0.0 mm/hr 0.00 in0.0 mm
12:47 AM 53.4°F11.9°C 44.2°F6.8°C 71% 4.0 mph NW6.4 kmh NW 7.4 mph11.9 kmh 24.86 in841.9 mb 0.00 in0.0 mm 0.00 in/hr0.0 mm/hr 0.00 in0.0 mm
12:52 AM 53.6°F12.0°C 44.8°F7.1°C 72% 5.0 mph NW8.0 kmh NW 8.3 mph13.4 kmh 24.86 in841.9 mb 0.00 in0.0 mm 0.00 in/hr0.0 mm/hr 0.00 in0.0 mm
12:57 AM 53.4°F11.9°C 44.6°F7.0°C 72% 5.0 mph NW8.0 kmh NW 9.2 mph14.8 kmh 24.86 in841.9 mb 0.00 in0.0 mm 0.00 in/hr0.0 mm/hr 0.00 in0.0 mm
01:02 AM 53.4°F11.9°C 45.0°F7.2°C 73% 5.0 mph NW8.0 kmh NW 7.4 mph11.9 kmh 24.86 in841.9 mb 0.00 in0.0 mm 0.00 in/hr0.0 mm/hr 0.00 in0.0 mm
01:07 AM 53.2°F11.8°C 44.8°F7.1°C 73% 5.0 mph NW8.0 kmh NW 7.8 mph12.6 kmh 24.86 in841.9 mb 0.00 in0.0 mm 0.00 in/hr0.0 mm/hr 0.00 in0.0 mm
01:12 AM 53.2°F11.8°C 44.8°F7.1°C 73% 6.0 mph NNW9.7 kmh NNW 8.7 mph14.0 kmh 24.86 in841.9 mb 0.00 in0.0 mm 0.00 in/hr0.0 mm/hr 0.00 in0.0 mm
01:17 AM 52.9°F11.6°C 44.4°F6.9°C 73% 6.0 mph N9.7 kmh N 9.2 mph14.8 kmh 24.86 in841.9 mb 0.00 in0.0 mm 0.00 in/hr0.0 mm/hr 0.00 in0.0 mm
01:22 AM 52.7°F11.5°C 45.0°F7.2°C 75% 6.0 mph NNW9.7 kmh NNW 9.6 mph15.4 kmh 24.86 in841.9 mb 0.00 in0.0 mm 0.00 in/hr0.0 mm/hr 0.00 in0.0 mm
01:27 AM 52.5°F11.4°C 44.8°F7.1°C 75% 5.0 mph NNW8.0 kmh NNW 7.8 mph12.6 kmh 24.86 in841.9 mb 0.00 in0.0 mm 0.00 in/hr0.0 mm/hr 0.00 in0.0 mm
01:32 AM 52.5°F11.4°C 45.1°F7.3°C 76% 3.0 mph NW4.8 kmh NW 5.4 mph8.7 kmh 24.86 in841.9 mb 0.00 in0.0 mm 0.00 in/hr0.0 mm/hr 0.00 in0.0 mm
01:37 AM 52.2°F11.2°C 44.8°F7.1°C 76% 1.0 mph NW1.6 kmh NW 2.7 mph4.3 kmh 24.86 in841.9 mb 0.00 in0.0 mm 0.00 in/hr0.0 mm/hr 0.00 in0.0 mm
01:42 AM 52.2°F11.2°C 45.1°F7.3°C 77% Calm Calm 2.7 mph4.3 kmh 24.86 in841.9 mb 0.00 in0.0 mm 0.00 in/hr0.0 mm/hr 0.00 in0.0 mm
01:47 AM 52.0°F11.1°C 45.0°F7.2°C 77% Calm Calm 2.7 mph4.3 kmh 24.86 in841.9 mb 0.00 in0.0 mm 0.00 in/hr0.0 mm/hr 0.00 in0.0 mm
01:52 AM 52.0°F11.1°C 45.3°F7.4°C 78% Calm Calm 2.7 mph4.3 kmh 24.86 in841.9 mb 0.00 in0.0 mm 0.00 in/hr0.0 mm/hr 0.00 in0.0 mm
01:57 AM 51.8°F11.0°C 45.1°F7.3°C 78% Calm Calm 2.7 mph4.3 kmh 24.89 in842.9 mb 0.00 in0.0 mm 0.00 in/hr0.0 mm/hr 0.00 in0.0 mm
02:02 AM 52.0°F11.1°C 45.7°F7.6°C 79% Calm Calm 4.0 mph6.4 kmh 24.89 in842.9 mb 0.00 in0.0 mm 0.00 in/hr0.0 mm/hr 0.00 in0.0 mm
02:07 AM 52.0°F11.1°C 46.0°F7.8°C 80% 2.0 mph NW3.2 kmh NW 4.9 mph7.9 kmh 24.89 in842.9 mb 0.00 in0.0 mm 0.00 in/hr0.0 mm/hr 0.00 in0.0 mm
02:12 AM 52.0°F11.1°C 46.0°F7.8°C 80% 1.0 mph NW1.6 kmh NW 3.6 mph5.8 kmh 24.86 in841.9 mb 0.00 in0.0 mm 0.00 in/hr0.0 mm/hr 0.00 in0.0 mm
02:22 AM 52.2°F11.2°C 46.6°F8.1°C 81% Calm Calm 5.8 mph9.3 kmh 24.86 in841.9 mb 0.00 in0.0 mm 0.00 in/hr0.0 mm/hr 0.00 in0.0 mm
02:27 AM 52.2°F11.2°C 46.6°F8.1°C 81% 1.0 mph NW1.6 kmh NW 5.8 mph9.3 kmh 24.89 in842.9 mb 0.00 in0.0 mm 0.00 in/hr0.0 mm/hr 0.00 in0.0 mm
02:32 AM 52.3°F11.3°C 46.8°F8.2°C 81% 2.0 mph NW3.2 kmh NW 4.5 mph7.2 kmh 24.89 in842.9 mb 0.00 in0.0 mm 0.00 in/hr0.0 mm/hr 0.00 in0.0 mm
02:37 AM 52.3°F11.3°C 46.8°F8.2°C 81% 2.0 mph W3.2 kmh W 4.5 mph7.2 kmh 24.89 in842.9 mb 0.00 in0.0 mm 0.00 in/hr0.0 mm/hr 0.00 in0.0 mm
02:42 AM 52.3°F11.3°C 46.8°F8.2°C 81% 2.0 mph SW3.2 kmh SW 4.5 mph7.2 kmh 24.86 in841.9 mb 0.00 in0.0 mm 0.00 in/hr0.0 mm/hr 0.00 in0.0 mm
02:47 AM 52.3°F11.3°C 46.4°F8.0°C 80% 2.0 mph SW3.2 kmh SW 4.5 mph7.2 kmh 24.86 in841.9 mb 0.00 in0.0 mm 0.00 in/hr0.0 mm/hr 0.00 in0.0 mm
02:52 AM 52.3°F11.3°C 46.4°F8.0°C 80% 2.0 mph SW3.2 kmh SW 4.5 mph7.2 kmh 24.86 in841.9 mb 0.00 in0.0 mm 0.00 in/hr0.0 mm/hr 0.00 in0.0 mm
02:57 AM 52.3°F11.3°C 46.4°F8.0°C 80% 2.0 mph SW3.2 kmh SW 3.6 mph5.8 kmh 24.89 in842.9 mb 0.00 in0.0 mm 0.00 in/hr0.0 mm/hr 0.00 in0.0 mm
03:02 AM 52.3°F11.3°C 46.4°F8.0°C 80% 2.0 mph SW3.2 kmh SW 3.6 mph5.8 kmh 24.89 in842.9 mb 0.00 in0.0 mm 0.00 in/hr0.0 mm/hr 0.00 in0.0 mm
03:07 AM 52.3°F11.3°C 46.4°F8.0°C 80% 2.0 mph SW3.2 kmh SW 3.6 mph5.8 kmh 24.89 in842.9 mb 0.00 in0.0 mm 0.00 in/hr0.0 mm/hr 0.00 in0.0 mm
03:12 AM 52.3°F11.3°C 46.0°F7.8°C 79% 1.0 mph SSW1.6 kmh SSW 3.6 mph5.8 kmh 24.86 in841.9 mb 0.00 in0.0 mm 0.00 in/hr0.0 mm/hr 0.00 in0.0 mm
03:17 AM 52.3°F11.3°C 46.0°F7.8°C 79% 1.0 mph S1.6 kmh S 4.9 mph7.9 kmh 24.86 in841.9 mb 0.00 in0.0 mm 0.00 in/hr0.0 mm/hr 0.00 in0.0 mm
03:22 AM 52.5°F11.4°C 46.2°F7.9°C 79% 3.0 mph SSE4.8 kmh SSE 6.3 mph10.1 kmh 24.86 in841.9 mb 0.00 in0.0 mm 0.00 in/hr0.0 mm/hr 0.00 in0.0 mm
03:27 AM 52.5°F11.4°C 45.9°F7.7°C 78% 3.0 mph SE4.8 kmh SE 4.9 mph7.9 kmh 24.89 in842.9 mb 0.00 in0.0 mm 0.00 in/hr0.0 mm/hr 0.00 in0.0 mm
03:32 AM 52.5°F11.4°C 45.9°F7.7°C 78% 2.0 mph SE3.2 kmh SE 3.1 mph5.0 kmh 24.89 in842.9 mb 0.00 in0.0 mm 0.00 in/hr0.0 mm/hr 0.00 in0.0 mm
03:37 AM 52.5°F11.4°C 45.9°F7.7°C 78% 2.0 mph SE3.2 kmh SE 4.0 mph6.4 kmh 24.89 in842.9 mb 0.00 in0.0 mm 0.00 in/hr0.0 mm/hr 0.00 in0.0 mm
03:43 AM 52.5°F11.4°C 45.5°F7.5°C 77% 2.0 mph SE3.2 kmh SE 3.1 mph5.0 kmh 24.89 in842.9 mb 0.00 in0.0 mm 0.00 in/hr0.0 mm/hr 0.00 in0.0 mm
03:48 AM 52.5°F11.4°C 45.5°F7.5°C 77% Calm Calm -- 24.89 in842.9 mb 0.00 in0.0 mm 0.00 in/hr0.0 mm/hr 0.00 in0.0 mm
03:53 AM 52.3°F11.3°C 45.3°F7.4°C 77% Calm Calm 4.5 mph7.2 kmh 24.89 in842.9 mb 0.00 in0.0 mm 0.00 in/hr0.0 mm/hr 0.00 in0.0 mm
03:58 AM 52.2°F11.2°C 45.1°F7.3°C 77% 1.0 mph SSW1.6 kmh SSW 3.1 mph5.0 kmh 24.89 in842.9 mb 0.00 in0.0 mm 0.00 in/hr0.0 mm/hr 0.00 in0.0 mm
04:03 AM 52.0°F11.1°C 45.3°F7.4°C 78% 1.0 mph SW1.6 kmh SW 4.0 mph6.4 kmh 24.89 in842.9 mb 0.00 in0.0 mm 0.00 in/hr0.0 mm/hr 0.00 in0.0 mm
04:08 AM 52.2°F11.2°C 45.5°F7.5°C 78% 2.0 mph WSW3.2 kmh WSW 4.0 mph6.4 kmh 24.89 in842.9 mb 0.00 in0.0 mm 0.00 in/hr0.0 mm/hr 0.00 in0.0 mm
04:13 AM 52.3°F11.3°C 45.3°F7.4°C 77% 1.0 mph WSW1.6 kmh WSW -- 24.89 in842.9 mb 0.00 in0.0 mm 0.00 in/hr0.0 mm/hr 0.00 in0.0 mm
04:18 AM 52.2°F11.2°C 45.1°F7.3°C 77% Calm Calm 3.1 mph5.0 kmh 24.89 in842.9 mb 0.00 in0.0 mm 0.00 in/hr0.0 mm/hr 0.00 in0.0 mm
04:23 AM 52.3°F11.3°C 45.3°F7.4°C 77% 2.0 mph SW3.2 kmh SW 3.6 mph5.8 kmh 24.89 in842.9 mb 0.00 in0.0 mm 0.00 in/hr0.0 mm/hr 0.00 in0.0 mm
04:28 AM 52.2°F11.2°C 45.1°F7.3°C 77% 2.0 mph S3.2 kmh S 3.1 mph5.0 kmh 24.89 in842.9 mb 0.00 in0.0 mm 0.00 in/hr0.0 mm/hr 0.00 in0.0 mm
04:33 AM 52.2°F11.2°C 45.1°F7.3°C 77% Calm Calm 3.1 mph5.0 kmh 24.89 in842.9 mb 0.00 in0.0 mm 0.00 in/hr0.0 mm/hr 0.00 in0.0 mm
04:38 AM 51.6°F10.9°C 43.9°F6.6°C 75% Calm Calm -- 24.89 in842.9 mb 0.00 in0.0 mm 0.00 in/hr0.0 mm/hr 0.00 in0.0 mm
04:43 AM 51.6°F10.9°C 44.6°F7.0°C 77% Calm Calm 2.7 mph4.3 kmh 24.89 in842.9 mb 0.00 in0.0 mm 0.00 in/hr0.0 mm/hr 0.00 in0.0 mm
04:48 AM 51.6°F10.9°C 44.6°F7.0°C 77% 1.0 mph SSE1.6 kmh SSE 3.6 mph5.8 kmh 24.89 in842.9 mb 0.00 in0.0 mm 0.00 in/hr0.0 mm/hr 0.00 in0.0 mm
04:53 AM 51.6°F10.9°C 44.6°F7.0°C 77% 2.0 mph S3.2 kmh S 3.6 mph5.8 kmh 24.89 in842.9 mb 0.00 in0.0 mm 0.00 in/hr0.0 mm/hr 0.00 in0.0 mm
04:58 AM 51.6°F10.9°C 44.6°F7.0°C 77% Calm Calm -- 24.89 in842.9 mb 0.00 in0.0 mm 0.00 in/hr0.0 mm/hr 0.00 in0.0 mm
05:03 AM 51.8°F11.0°C 44.8°F7.1°C 77% Calm Calm -- 24.89 in842.9 mb 0.00 in0.0 mm 0.00 in/hr0.0 mm/hr 0.00 in0.0 mm
05:08 AM 52.2°F11.2°C 44.8°F7.1°C 76% Calm Calm -- 24.89 in842.9 mb 0.00 in0.0 mm 0.00 in/hr0.0 mm/hr 0.00 in0.0 mm
05:13 AM 52.5°F11.4°C 45.1°F7.3°C 76% Calm Calm -- 24.89 in842.9 mb 0.00 in0.0 mm 0.00 in/hr0.0 mm/hr 0.00 in0.0 mm
05:18 AM 52.7°F11.5°C 45.3°F7.4°C 76% Calm Calm -- 24.89 in842.9 mb 0.00 in0.0 mm 0.00 in/hr0.0 mm/hr 0.00 in0.0 mm
05:23 AM 52.5°F11.4°C 44.8°F7.1°C 75% Calm Calm 4.0 mph6.4 kmh 24.89 in842.9 mb 0.00 in0.0 mm 0.00 in/hr0.0 mm/hr 0.00 in0.0 mm
05:28 AM 52.5°F11.4°C 44.8°F7.1°C 75% Calm Calm 3.1 mph5.0 kmh 24.89 in842.9 mb 0.00 in0.0 mm 0.00 in/hr0.0 mm/hr 0.00 in0.0 mm
05:33 AM 52.5°F11.4°C 44.8°F7.1°C 75% Calm Calm 3.1 mph5.0 kmh 24.89 in842.9 mb 0.00 in0.0 mm 0.00 in/hr0.0 mm/hr 0.00 in0.0 mm
05:38 AM 52.5°F11.4°C 44.8°F7.1°C 75% 1.0 mph SE1.6 kmh SE 4.5 mph7.2 kmh 24.89 in842.9 mb 0.00 in0.0 mm 0.00 in/hr0.0 mm/hr 0.00 in0.0 mm
05:43 AM 52.5°F11.4°C 44.8°F7.1°C 75% 2.0 mph ESE3.2 kmh ESE 3.6 mph5.8 kmh 24.92 in843.9 mb 0.00 in0.0 mm 0.00 in/hr0.0 mm/hr 0.00 in0.0 mm
05:48 AM 52.5°F11.4°C 44.8°F7.1°C 75% 2.0 mph ESE3.2 kmh ESE 5.4 mph8.7 kmh 24.92 in843.9 mb 0.00 in0.0 mm 0.00 in/hr0.0 mm/hr 0.00 in0.0 mm
05:53 AM 52.9°F11.6°C 45.1°F7.3°C 75% 3.0 mph N4.8 kmh N 5.4 mph8.7 kmh 24.92 in843.9 mb 0.00 in0.0 mm 0.00 in/hr0.0 mm/hr 0.00 in0.0 mm
05:58 AM 52.9°F11.6°C 45.1°F7.3°C 75% 5.0 mph NW8.0 kmh NW 6.9 mph11.1 kmh 24.92 in843.9 mb 0.00 in0.0 mm 0.00 in/hr0.0 mm/hr 0.00 in0.0 mm
06:03 AM 52.7°F11.5°C 45.7°F7.6°C 77% 5.0 mph NW8.0 kmh NW 7.4 mph11.9 kmh 24.92 in843.9 mb 0.00 in0.0 mm 0.00 in/hr0.0 mm/hr 0.00 in0.0 mm
06:08 AM 52.3°F11.3°C 46.0°F7.8°C 79% 5.0 mph NW8.0 kmh NW 7.8 mph12.6 kmh 24.92 in843.9 mb 0.00 in0.0 mm 0.00 in/hr0.0 mm/hr 0.00 in0.0 mm
06:13 AM 51.8°F11.0°C 46.2°F7.9°C 81% 6.0 mph NW9.7 kmh NW 12.1 mph19.5 kmh 24.92 in843.9 mb 0.00 in0.0 mm 0.00 in/hr0.0 mm/hr 0.00 in0.0 mm
06:18 AM 51.3°F10.7°C 45.3°F7.4°C 80% 7.0 mph NW11.3 kmh NW 11.6 mph18.7 kmh 24.92 in843.9 mb 0.00 in0.0 mm 0.00 in/hr0.0 mm/hr 0.00 in0.0 mm
06:23 AM 50.9°F10.5°C 43.3°F6.3°C 75% 8.0 mph NNW12.9 kmh NNW 12.1 mph19.5 kmh 24.92 in843.9 mb 0.00 in0.0 mm 0.00 in/hr0.0 mm/hr 0.00 in0.0 mm
06:28 AM 50.9°F10.5°C 42.6°F5.9°C 73% 8.0 mph NNW12.9 kmh NNW 13.0 mph20.9 kmh 24.92 in843.9 mb 0.00 in0.0 mm 0.00 in/hr0.0 mm/hr 0.00 in0.0 mm
06:33 AM 50.9°F10.5°C 42.3°F5.7°C 72% 8.0 mph NNW12.9 kmh NNW 11.2 mph18.0 kmh 24.92 in843.9 mb 0.00 in0.0 mm 0.00 in/hr0.0 mm/hr 0.00 in0.0 mm
06:38 AM 50.9°F10.5°C 41.9°F5.5°C 71% 7.0 mph NNW11.3 kmh NNW 9.6 mph15.4 kmh 24.92 in843.9 mb 0.00 in0.0 mm 0.00 in/hr0.0 mm/hr 0.00 in0.0 mm
06:43 AM 50.7°F10.4°C 41.4°F5.2°C 70% 7.0 mph NW11.3 kmh NW 11.2 mph18.0 kmh 24.95 in844.9 mb 0.00 in0.0 mm 0.00 in/hr0.0 mm/hr 0.00 in0.0 mm
06:48 AM 50.7°F10.4°C 41.4°F5.2°C 70% 6.0 mph NW9.7 kmh NW 6.9 mph11.1 kmh 24.95 in844.9 mb 0.00 in0.0 mm 0.00 in/hr0.0 mm/hr 0.00 in0.0 mm
06:53 AM 50.7°F10.4°C 41.4°F5.2°C 70% 3.0 mph NNW4.8 kmh NNW 4.5 mph7.2 kmh 24.95 in844.9 mb 0.00 in0.0 mm 0.00 in/hr0.0 mm/hr 0.00 in0.0 mm
06:58 AM 50.7°F10.4°C 41.4°F5.2°C 70% Calm Calm -- 24.95 in844.9 mb 0.00 in0.0 mm 0.00 in/hr0.0 mm/hr 0.00 in0.0 mm
07:03 AM 50.9°F10.5°C 41.5°F5.3°C 70% Calm Calm -- 24.95 in844.9 mb 0.00 in0.0 mm 0.00 in/hr0.0 mm/hr 0.00 in0.0 mm
07:08 AM 50.9°F10.5°C 41.5°F5.3°C 70% Calm Calm 2.7 mph4.3 kmh 24.95 in844.9 mb 0.00 in0.0 mm 0.00 in/hr0.0 mm/hr 0.00 in0.0 mm
07:13 AM 51.1°F10.6°C 40.8°F4.9°C 68% 1.0 mph 1.6 kmh 3.6 mph5.8 kmh 24.95 in844.9 mb 0.00 in0.0 mm 0.00 in/hr0.0 mm/hr 0.00 in0.0 mm
07:18 AM 51.3°F10.7°C 41.0°F5.0°C 68% 1.0 mph N1.6 kmh N 2.7 mph4.3 kmh 24.95 in844.9 mb 0.00 in0.0 mm 0.00 in/hr0.0 mm/hr 0.00 in0.0 mm
07:23 AM 51.4°F10.8°C 41.2°F5.1°C 68% Calm Calm -- 24.95 in844.9 mb 0.00 in0.0 mm 0.00 in/hr0.0 mm/hr 0.00 in0.0 mm
07:28 AM 51.6°F10.9°C 41.0°F5.0°C 67% Calm Calm -- 24.95 in844.9 mb 0.00 in0.0 mm 0.00 in/hr0.0 mm/hr 0.00 in0.0 mm
07:33 AM 51.6°F10.9°C 41.0°F5.0°C 67% Calm Calm -- 24.95 in844.9 mb 0.00 in0.0 mm 0.00 in/hr0.0 mm/hr 0.00 in0.0 mm
07:38 AM 51.6°F10.9°C 41.0°F5.0°C 67% Calm Calm 4.0 mph6.4 kmh 24.95 in844.9 mb 0.00 in0.0 mm 0.00 in/hr0.0 mm/hr 0.00 in0.0 mm
07:43 AM 52.2°F11.2°C 41.2°F5.1°C 66% 1.0 mph E1.6 kmh E 3.6 mph5.8 kmh 24.95 in844.9 mb 0.00 in0.0 mm 0.00 in/hr0.0 mm/hr 0.00 in0.0 mm
07:48 AM 52.2°F11.2°C 40.3°F4.6°C 64% 1.0 mph E1.6 kmh E 4.5 mph7.2 kmh 24.95 in844.9 mb 0.00 in0.0 mm 0.00 in/hr0.0 mm/hr 0.00 in0.0 mm
07:54 AM 52.3°F11.3°C 40.1°F4.5°C 63% 2.0 mph ESE3.2 kmh ESE 6.9 mph11.1 kmh 24.95 in844.9 mb 0.00 in0.0 mm 0.00 in/hr0.0 mm/hr 0.00 in0.0 mm
07:59 AM 52.3°F11.3°C 40.1°F4.5°C 63% 4.0 mph SE6.4 kmh SE 6.3 mph10.1 kmh 24.95 in844.9 mb 0.00 in0.0 mm 0.00 in/hr0.0 mm/hr 0.00 in0.0 mm
08:04 AM 52.5°F11.4°C 39.9°F4.4°C 62% 2.0 mph ESE3.2 kmh ESE 4.9 mph7.9 kmh 24.95 in844.9 mb 0.00 in0.0 mm 0.00 in/hr0.0 mm/hr 0.00 in0.0 mm
08:09 AM 52.7°F11.5°C 39.6°F4.2°C 61% 2.0 mph ESE3.2 kmh ESE 4.5 mph7.2 kmh 24.95 in844.9 mb 0.00 in0.0 mm 0.00 in/hr0.0 mm/hr 0.00 in0.0 mm
08:14 AM 52.9°F11.6°C 39.0°F3.9°C 59% 2.0 mph SE3.2 kmh SE 9.2 mph14.8 kmh 24.95 in844.9 mb 0.00 in0.0 mm 0.00 in/hr0.0 mm/hr 0.00 in0.0 mm
08:19 AM 53.2°F11.8°C 38.5°F3.6°C 57% 2.0 mph SSW3.2 kmh SSW 9.2 mph14.8 kmh 24.95 in844.9 mb 0.00 in0.0 mm 0.00 in/hr0.0 mm/hr 0.00 in0.0 mm
08:24 AM 53.6°F12.0°C 37.8°F3.2°C 55% 2.0 mph W3.2 kmh W 6.7 mph10.8 kmh 24.95 in844.9 mb 0.00 in0.0 mm 0.00 in/hr0.0 mm/hr 0.00 in0.0 mm
08:29 AM 54.0°F12.2°C 35.8°F2.1°C 50% 4.0 mph N6.4 kmh N 8.7 mph14.0 kmh 24.95 in844.9 mb 0.00 in0.0 mm 0.00 in/hr0.0 mm/hr 0.00 in0.0 mm
08:34 AM 54.9°F12.7°C 35.1°F1.7°C 47% 4.0 mph NNE6.4 kmh NNE 5.8 mph9.3 kmh 24.95 in844.9 mb 0.00 in0.0 mm 0.00 in/hr0.0 mm/hr 0.00 in0.0 mm
08:39 AM 55.2°F12.9°C 31.3°F-0.4°C 40% 4.0 mph NNW6.4 kmh NNW 10.5 mph16.9 kmh 24.95 in844.9 mb 0.00 in0.0 mm 0.00 in/hr0.0 mm/hr 0.00 in0.0 mm
08:44 AM 55.8°F13.2°C 30.6°F-0.8°C 38% 6.0 mph W9.7 kmh W 14.3 mph23.0 kmh 24.98 in845.9 mb 0.00 in0.0 mm 0.00 in/hr0.0 mm/hr 0.00 in0.0 mm
08:49 AM 55.9°F13.3°C 30.0°F-1.1°C 37% 6.0 mph WSW9.7 kmh WSW 14.3 mph23.0 kmh 24.98 in845.9 mb 0.00 in0.0 mm 0.00 in/hr0.0 mm/hr 0.00 in0.0 mm
08:54 AM 56.3°F13.5°C 29.7°F-1.3°C 36% 7.0 mph WSW11.3 kmh WSW 17.2 mph27.7 kmh 24.98 in845.9 mb 0.00 in0.0 mm 0.00 in/hr0.0 mm/hr 0.00 in0.0 mm
08:59 AM 56.7°F13.7°C 29.3°F-1.5°C 35% 9.0 mph SW14.5 kmh SW 15.2 mph24.5 kmh 24.98 in845.9 mb 0.00 in0.0 mm 0.00 in/hr0.0 mm/hr 0.00 in0.0 mm
09:04 AM 57.2°F14.0°C 29.1°F-1.6°C 34% 9.0 mph SW14.5 kmh SW 17.7 mph28.5 kmh 24.98 in845.9 mb 0.00 in0.0 mm 0.00 in/hr0.0 mm/hr 0.00 in0.0 mm
09:09 AM 57.6°F14.2°C 27.1°F-2.7°C 31% 9.0 mph SW14.5 kmh SW 15.2 mph24.5 kmh 24.98 in845.9 mb 0.00 in0.0 mm 0.00 in/hr0.0 mm/hr 0.00 in0.0 mm
09:14 AM 57.4°F14.1°C 25.3°F-3.7°C 29% 10.0 mph SW16.1 kmh SW 17.2 mph27.7 kmh 24.98 in845.9 mb 0.00 in0.0 mm 0.00 in/hr0.0 mm/hr 0.00 in0.0 mm
09:19 AM 57.2°F14.0°C 24.4°F-4.2°C 28% 12.0 mph WSW19.3 kmh WSW 28.4 mph45.7 kmh 24.98 in845.9 mb 0.00 in0.0 mm 0.00 in/hr0.0 mm/hr 0.00 in0.0 mm
09:24 AM 57.7°F14.3°C 24.1°F-4.4°C 27% 12.0 mph W19.3 kmh W 20.6 mph33.2 kmh 24.98 in845.9 mb 0.00 in0.0 mm 0.00 in/hr0.0 mm/hr 0.00 in0.0 mm
09:29 AM 57.7°F14.3°C 23.2°F-4.9°C 26% 13.0 mph WNW20.9 kmh WNW 20.1 mph32.3 kmh 24.98 in845.9 mb 0.00 in0.0 mm 0.00 in/hr0.0 mm/hr 0.00 in0.0 mm
09:34 AM 57.7°F14.3°C 23.2°F-4.9°C 26% 14.0 mph W22.5 kmh W 21.0 mph33.8 kmh 24.98 in845.9 mb 0.00 in0.0 mm 0.00 in/hr0.0 mm/hr 0.00 in0.0 mm
09:39 AM 58.8°F14.9°C 23.0°F-5.0°C 25% 12.0 mph W19.3 kmh W 21.9 mph35.2 kmh 24.98 in845.9 mb 0.00 in0.0 mm 0.00 in/hr0.0 mm/hr 0.00 in0.0 mm
09:44 AM 59.4°F15.2°C 23.5°F-4.7°C 25% 10.0 mph WNW16.1 kmh WNW 16.8 mph27.0 kmh 24.98 in845.9 mb 0.00 in0.0 mm 0.00 in/hr0.0 mm/hr 0.00 in0.0 mm
09:59 AM 58.1°F14.5°C 21.6°F-5.8°C 24% 13.0 mph W20.9 kmh W 22.4 mph36.0 kmh 24.98 in845.9 mb 0.00 in0.0 mm 0.00 in/hr0.0 mm/hr 0.00 in0.0 mm
10:04 AM 58.6°F14.8°C 21.9°F-5.6°C 24% 15.0 mph WNW24.1 kmh WNW 27.1 mph43.6 kmh 24.98 in845.9 mb 0.00 in0.0 mm 0.00 in/hr0.0 mm/hr 0.00 in0.0 mm
10:09 AM 58.1°F14.5°C 19.4°F-7.0°C 22% 15.0 mph W24.1 kmh W 22.8 mph36.7 kmh 24.98 in845.9 mb 0.00 in0.0 mm 0.00 in/hr0.0 mm/hr 0.00 in0.0 mm
10:14 AM 60.6°F15.9°C 18.1°F-7.7°C 19% 14.0 mph W22.5 kmh W 20.6 mph33.2 kmh 24.98 in845.9 mb 0.00 in0.0 mm 0.00 in/hr0.0 mm/hr 0.00 in0.0 mm
10:19 AM 58.3°F14.6°C 16.2°F-8.8°C 19% 13.0 mph WNW20.9 kmh WNW 19.0 mph30.6 kmh 24.98 in845.9 mb 0.00 in0.0 mm 0.00 in/hr0.0 mm/hr 0.00 in0.0 mm
10:24 AM 58.6°F14.8°C 16.5°F-8.6°C 19% 14.0 mph NW22.5 kmh NW 23.3 mph37.5 kmh 24.98 in845.9 mb 0.00 in0.0 mm 0.00 in/hr0.0 mm/hr 0.00 in0.0 mm
10:29 AM 57.4°F14.1°C 21.9°F-5.6°C 25% 15.0 mph NW24.1 kmh NW 23.7 mph38.1 kmh 24.98 in845.9 mb 0.00 in0.0 mm 0.00 in/hr0.0 mm/hr 0.00 in0.0 mm
10:34 AM 57.4°F14.1°C 22.8°F-5.1°C 26% 13.0 mph NW20.9 kmh NW 19.5 mph31.4 kmh 24.98 in845.9 mb 0.00 in0.0 mm 0.00 in/hr0.0 mm/hr 0.00 in0.0 mm
10:39 AM 58.8°F14.9°C 23.0°F-5.0°C 25% 12.0 mph NNW19.3 kmh NNW 21.0 mph33.8 kmh 24.98 in845.9 mb 0.00 in0.0 mm 0.00 in/hr0.0 mm/hr 0.00 in0.0 mm
10:44 AM 58.1°F14.5°C 22.5°F-5.3°C 25% 11.0 mph NNW17.7 kmh NNW 19.9 mph32.0 kmh 24.98 in845.9 mb 0.00 in0.0 mm 0.00 in/hr0.0 mm/hr 0.00 in0.0 mm
10:49 AM 58.1°F14.5°C 22.5°F-5.3°C 25% 10.0 mph NW16.1 kmh NW 17.2 mph27.7 kmh 24.98 in845.9 mb 0.00 in0.0 mm 0.00 in/hr0.0 mm/hr 0.00 in0.0 mm
10:54 AM 58.8°F14.9°C 23.0°F-5.0°C 25% 10.0 mph NW16.1 kmh NW 15.9 mph25.6 kmh 24.98 in845.9 mb 0.00 in0.0 mm 0.00 in/hr0.0 mm/hr 0.00 in0.0 mm
10:59 AM 58.5°F14.7°C 6.1°F-14.4°C 12% 13.0 mph WNW20.9 kmh WNW 21.5 mph34.6 kmh 24.98 in845.9 mb 0.00 in0.0 mm 0.00 in/hr0.0 mm/hr 0.00 in0.0 mm
11:04 AM 59.2°F15.1°C 6.6°F-14.1°C 12% 14.0 mph W22.5 kmh W 23.3 mph37.5 kmh 24.98 in845.9 mb 0.00 in0.0 mm 0.00 in/hr0.0 mm/hr 0.00 in0.0 mm
11:09 AM 59.4°F15.2°C -5537.2°C - 12.0 mph W19.3 kmh W 18.6 mph29.9 kmh 24.98 in845.9 mb 0.00 in0.0 mm 0.00 in/hr0.0 mm/hr 0.00 in0.0 mm
11:14 AM 60.8°F16.0°C -5537.2°C - 10.0 mph WSW16.1 kmh WSW 22.4 mph36.0 kmh 24.98 in845.9 mb 0.00 in0.0 mm 0.00 in/hr0.0 mm/hr 0.00 in0.0 mm
11:19 AM 61.0°F16.1°C -5537.2°C - 9.0 mph SW14.5 kmh SW 14.8 mph23.8 kmh 24.98 in845.9 mb 0.00 in0.0 mm 0.00 in/hr0.0 mm/hr 0.00 in0.0 mm
11:24 AM 61.7°F16.5°C -5537.2°C - 8.0 mph SW12.9 kmh SW 20.1 mph32.3 kmh 24.98 in845.9 mb 0.00 in0.0 mm 0.00 in/hr0.0 mm/hr 0.00 in0.0 mm
11:30 AM 62.1°F16.7°C -5537.2°C - 10.0 mph SW16.1 kmh SW 20.6 mph33.2 kmh 24.98 in845.9 mb 0.00 in0.0 mm 0.00 in/hr0.0 mm/hr 0.00 in0.0 mm
11:35 AM 60.6°F15.9°C -5537.2°C - 12.0 mph SW19.3 kmh SW 21.9 mph35.2 kmh 24.98 in845.9 mb 0.00 in0.0 mm 0.00 in/hr0.0 mm/hr 0.00 in0.0 mm
11:40 AM 61.3°F16.3°C -5537.2°C - 15.0 mph SW24.1 kmh SW 24.8 mph39.9 kmh 24.98 in845.9 mb 0.00 in0.0 mm 0.00 in/hr0.0 mm/hr 0.00 in0.0 mm
11:45 AM 62.2°F16.8°C -5537.2°C - 13.0 mph SW20.9 kmh SW 19.0 mph30.6 kmh 24.98 in845.9 mb 0.00 in0.0 mm 0.00 in/hr0.0 mm/hr 0.00 in0.0 mm
11:50 AM 61.9°F16.6°C -5537.2°C - 11.0 mph WSW17.7 kmh WSW 20.6 mph33.2 kmh 24.98 in845.9 mb 0.00 in0.0 mm 0.00 in/hr0.0 mm/hr 0.00 in0.0 mm
11:55 AM 61.5°F16.4°C -5537.2°C - 11.0 mph WSW17.7 kmh WSW 18.1 mph29.1 kmh 24.98 in845.9 mb 0.00 in0.0 mm 0.00 in/hr0.0 mm/hr 0.00 in0.0 mm
12:05 PM 62.2°F16.8°C -5537.2°C - 14.0 mph SW22.5 kmh SW 24.4 mph39.3 kmh 24.98 in845.9 mb 0.00 in0.0 mm 0.00 in/hr0.0 mm/hr 0.00 in0.0 mm
12:10 PM 61.9°F16.6°C -5537.2°C - 12.0 mph WSW19.3 kmh WSW 21.9 mph35.2 kmh 24.98 in845.9 mb 0.00 in0.0 mm 0.00 in/hr0.0 mm/hr 0.00 in0.0 mm
12:15 PM 63.1°F17.3°C -5537.2°C - 10.0 mph W16.1 kmh W 14.3 mph23.0 kmh 24.98 in845.9 mb 0.00 in0.0 mm 0.00 in/hr0.0 mm/hr 0.00 in0.0 mm
12:20 PM 62.6°F17.0°C -5537.2°C - 10.0 mph WSW16.1 kmh WSW 21.0 mph33.8 kmh 24.98 in845.9 mb 0.00 in0.0 mm 0.00 in/hr0.0 mm/hr 0.00 in0.0 mm
12:25 PM 61.5°F16.4°C -5537.2°C - 12.0 mph W19.3 kmh W 17.2 mph27.7 kmh 24.98 in845.9 mb 0.00 in0.0 mm 0.00 in/hr0.0 mm/hr 0.00 in0.0 mm
12:30 PM 61.9°F16.6°C -5537.2°C - 12.0 mph W19.3 kmh W 22.4 mph36.0 kmh 24.98 in845.9 mb 0.00 in0.0 mm 0.00 in/hr0.0 mm/hr 0.00 in0.0 mm
12:35 PM 62.2°F16.8°C -5537.2°C - 14.0 mph SW22.5 kmh SW 24.2 mph38.9 kmh 24.98 in845.9 mb 0.00 in0.0 mm 0.00 in/hr0.0 mm/hr 0.00 in0.0 mm
12:40 PM 61.7°F16.5°C -5537.2°C - 15.0 mph SW24.1 kmh SW 24.2 mph38.9 kmh 24.98 in845.9 mb 0.00 in0.0 mm 0.00 in/hr0.0 mm/hr 0.00 in0.0 mm
12:45 PM 62.1°F16.7°C -5537.2°C - 15.0 mph SW24.1 kmh SW 24.2 mph38.9 kmh 24.98 in845.9 mb 0.00 in0.0 mm 0.00 in/hr0.0 mm/hr 0.00 in0.0 mm
12:50 PM 61.3°F16.3°C -5537.2°C - 15.0 mph SW24.1 kmh SW 24.8 mph39.9 kmh 24.98 in845.9 mb 0.00 in0.0 mm 0.00 in/hr0.0 mm/hr 0.00 in0.0 mm
12:55 PM 62.8°F17.1°C -5537.2°C - 13.0 mph WSW20.9 kmh WSW 20.1 mph32.3 kmh 24.98 in845.9 mb 0.00 in0.0 mm 0.00 in/hr0.0 mm/hr 0.00 in0.0 mm
01:00 PM 62.2°F16.8°C -5537.2°C - 13.0 mph W20.9 kmh W 26.2 mph42.2 kmh 24.98 in845.9 mb 0.00 in0.0 mm 0.00 in/hr0.0 mm/hr 0.00 in0.0 mm
01:05 PM 61.7°F16.5°C -5537.2°C - 13.0 mph W20.9 kmh W 23.7 mph38.1 kmh 24.98 in845.9 mb 0.00 in0.0 mm 0.00 in/hr0.0 mm/hr 0.00 in0.0 mm
01:10 PM 62.4°F16.9°C -5537.2°C - 13.0 mph W20.9 kmh W 23.7 mph38.1 kmh 24.98 in845.9 mb 0.00 in0.0 mm 0.00 in/hr0.0 mm/hr 0.00 in0.0 mm
01:15 PM 61.7°F16.5°C -5537.2°C - 16.0 mph WNW25.7 kmh WNW 31.8 mph51.2 kmh 24.98 in845.9 mb 0.00 in0.0 mm 0.00 in/hr0.0 mm/hr 0.00 in0.0 mm
01:20 PM 62.2°F16.8°C -5537.2°C - 16.0 mph W25.7 kmh W 24.8 mph39.9 kmh 24.98 in845.9 mb 0.00 in0.0 mm 0.00 in/hr0.0 mm/hr 0.00 in0.0 mm
01:25 PM 61.7°F16.5°C -5537.2°C - 15.0 mph WSW24.1 kmh WSW 24.4 mph39.3 kmh 24.98 in845.9 mb 0.00 in0.0 mm 0.00 in/hr0.0 mm/hr 0.00 in0.0 mm
01:30 PM 63.1°F17.3°C -5537.2°C - 15.0 mph SW24.1 kmh SW 24.2 mph38.9 kmh 24.98 in845.9 mb 0.00 in0.0 mm 0.00 in/hr0.0 mm/hr 0.00 in0.0 mm
01:35 PM 61.5°F16.4°C -5537.2°C - 15.0 mph SW24.1 kmh SW 22.4 mph36.0 kmh 24.98 in845.9 mb 0.00 in0.0 mm 0.00 in/hr0.0 mm/hr 0.00 in0.0 mm
01:40 PM 63.0°F17.2°C -5537.2°C - 14.0 mph WSW22.5 kmh WSW 21.0 mph33.8 kmh 24.98 in845.9 mb 0.00 in0.0 mm 0.00 in/hr0.0 mm/hr 0.00 in0.0 mm
01:45 PM 63.0°F17.2°C -5537.2°C - 14.0 mph WSW22.5 kmh WSW 22.8 mph36.7 kmh 24.95 in844.9 mb 0.00 in0.0 mm 0.00 in/hr0.0 mm/hr 0.00 in0.0 mm
01:50 PM 63.5°F17.5°C -5537.2°C - 13.0 mph WSW20.9 kmh WSW 21.0 mph33.8 kmh 24.95 in844.9 mb 0.00 in0.0 mm 0.00 in/hr0.0 mm/hr 0.00 in0.0 mm
01:55 PM 63.9°F17.7°C -5537.2°C - 11.0 mph SW17.7 kmh SW 18.6 mph29.9 kmh 24.95 in844.9 mb 0.00 in0.0 mm 0.00 in/hr0.0 mm/hr 0.00 in0.0 mm
02:00 PM 64.0°F17.8°C -5537.2°C - 12.0 mph WSW19.3 kmh WSW 23.3 mph37.5 kmh 24.95 in844.9 mb 0.00 in0.0 mm 0.00 in/hr0.0 mm/hr 0.00 in0.0 mm
02:05 PM 63.1°F17.3°C -5537.2°C - 13.0 mph WSW20.9 kmh WSW 21.9 mph35.2 kmh 24.95 in844.9 mb 0.00 in0.0 mm 0.00 in/hr0.0 mm/hr 0.00 in0.0 mm
02:10 PM 64.8°F18.2°C -5537.2°C - 13.0 mph SW20.9 kmh SW 24.2 mph38.9 kmh 24.95 in844.9 mb 0.00 in0.0 mm 0.00 in/hr0.0 mm/hr 0.00 in0.0 mm
02:15 PM 64.2°F17.9°C -5537.2°C - 13.0 mph SW20.9 kmh SW 24.4 mph39.3 kmh 24.95 in844.9 mb 0.00 in0.0 mm 0.00 in/hr0.0 mm/hr 0.00 in0.0 mm
02:20 PM 64.2°F17.9°C -5537.2°C - 13.0 mph SW20.9 kmh SW 26.6 mph42.8 kmh 24.95 in844.9 mb 0.00 in0.0 mm 0.00 in/hr0.0 mm/hr 0.00 in0.0 mm
02:25 PM 63.9°F17.7°C -5537.2°C - 15.0 mph SW24.1 kmh SW 25.3 mph40.7 kmh 24.95 in844.9 mb 0.00 in0.0 mm 0.00 in/hr0.0 mm/hr 0.00 in0.0 mm
02:30 PM 63.5°F17.5°C -5537.2°C - 14.0 mph SW22.5 kmh SW 21.0 mph33.8 kmh 24.95 in844.9 mb 0.00 in0.0 mm 0.00 in/hr0.0 mm/hr 0.00 in0.0 mm
02:35 PM 64.4°F18.0°C -5537.2°C - 13.0 mph W20.9 kmh W 24.2 mph38.9 kmh 24.95 in844.9 mb 0.00 in0.0 mm 0.00 in/hr0.0 mm/hr 0.00 in0.0 mm
02:40 PM 63.1°F17.3°C -5537.2°C - 13.0 mph W20.9 kmh W 22.8 mph36.7 kmh 24.95 in844.9 mb 0.00 in0.0 mm 0.00 in/hr0.0 mm/hr 0.00 in0.0 mm
02:45 PM 64.4°F18.0°C -5537.2°C - 11.0 mph SW17.7 kmh SW 22.8 mph36.7 kmh 24.95 in844.9 mb 0.00 in0.0 mm 0.00 in/hr0.0 mm/hr 0.00 in0.0 mm
02:50 PM 63.9°F17.7°C -5537.2°C - 14.0 mph SW22.5 kmh SW 24.8 mph39.9 kmh 24.95 in844.9 mb 0.00 in0.0 mm 0.00 in/hr0.0 mm/hr 0.00 in0.0 mm
02:55 PM 64.8°F18.2°C -5537.2°C - 12.0 mph SW19.3 kmh SW 20.1 mph32.3 kmh 24.95 in844.9 mb 0.00 in0.0 mm 0.00 in/hr0.0 mm/hr 0.00 in0.0 mm
03:00 PM 64.4°F18.0°C -5537.2°C - 11.0 mph SW17.7 kmh SW 21.0 mph33.8 kmh 24.95 in844.9 mb 0.00 in0.0 mm 0.00 in/hr0.0 mm/hr 0.00 in0.0 mm
03:11 PM 63.5°F17.5°C -5537.2°C - 12.0 mph SW19.3 kmh SW 23.3 mph37.5 kmh 24.95 in844.9 mb 0.00 in0.0 mm 0.00 in/hr0.0 mm/hr 0.00 in0.0 mm
03:16 PM 64.4°F18.0°C -5537.2°C - 13.0 mph SW20.9 kmh SW 20.1 mph32.3 kmh 24.95 in844.9 mb 0.00 in0.0 mm 0.00 in/hr0.0 mm/hr 0.00 in0.0 mm
03:21 PM 63.9°F17.7°C -5537.2°C - 14.0 mph WSW22.5 kmh WSW 28.4 mph45.7 kmh 24.95 in844.9 mb 0.00 in0.0 mm 0.00 in/hr0.0 mm/hr 0.00 in0.0 mm
03:26 PM 64.6°F18.1°C -5537.2°C - 13.0 mph SW20.9 kmh SW 20.6 mph33.2 kmh 24.92 in843.9 mb 0.00 in0.0 mm 0.00 in/hr0.0 mm/hr 0.00 in0.0 mm
03:31 PM 65.8°F18.8°C -5537.2°C - 12.0 mph WSW19.3 kmh WSW 20.6 mph33.2 kmh 24.92 in843.9 mb 0.00 in0.0 mm 0.00 in/hr0.0 mm/hr 0.00 in0.0 mm
03:36 PM 64.6°F18.1°C -5537.2°C - 14.0 mph W22.5 kmh W 31.3 mph50.4 kmh 24.92 in843.9 mb 0.00 in0.0 mm 0.00 in/hr0.0 mm/hr 0.00 in0.0 mm
03:41 PM 63.5°F17.5°C -5537.2°C - 15.0 mph WSW24.1 kmh WSW 26.6 mph42.8 kmh 24.92 in843.9 mb 0.00 in0.0 mm 0.00 in/hr0.0 mm/hr 0.00 in0.0 mm
03:46 PM 64.4°F18.0°C -5537.2°C - 13.0 mph WSW20.9 kmh WSW 17.7 mph28.5 kmh 24.92 in843.9 mb 0.00 in0.0 mm 0.00 in/hr0.0 mm/hr 0.00 in0.0 mm
03:51 PM 65.1°F18.4°C -5537.2°C - 12.0 mph WSW19.3 kmh WSW 28.6 mph46.0 kmh 24.92 in843.9 mb 0.00 in0.0 mm 0.00 in/hr0.0 mm/hr 0.00 in0.0 mm
03:56 PM 64.4°F18.0°C -5537.2°C - 14.0 mph W22.5 kmh W 27.1 mph43.6 kmh 24.92 in843.9 mb 0.00 in0.0 mm 0.00 in/hr0.0 mm/hr 0.00 in0.0 mm
04:01 PM 63.5°F17.5°C -5537.2°C - 14.0 mph WNW22.5 kmh WNW 27.5 mph44.3 kmh 24.92 in843.9 mb 0.00 in0.0 mm 0.00 in/hr0.0 mm/hr 0.00 in0.0 mm
04:06 PM 64.4°F18.0°C -5537.2°C - 14.0 mph WNW22.5 kmh WNW 26.2 mph42.2 kmh 24.92 in843.9 mb 0.00 in0.0 mm 0.00 in/hr0.0 mm/hr 0.00 in0.0 mm
04:11 PM 64.2°F17.9°C -5537.2°C - 12.0 mph W19.3 kmh W 21.0 mph33.8 kmh 24.92 in843.9 mb 0.00 in0.0 mm 0.00 in/hr0.0 mm/hr 0.00 in0.0 mm
04:16 PM 64.9°F18.3°C -5537.2°C - 13.0 mph SW20.9 kmh SW 24.8 mph39.9 kmh 24.92 in843.9 mb 0.00 in0.0 mm 0.00 in/hr0.0 mm/hr 0.00 in0.0 mm
04:21 PM 64.8°F18.2°C -5537.2°C - 15.0 mph WSW24.1 kmh WSW 22.8 mph36.7 kmh 24.92 in843.9 mb 0.00 in0.0 mm 0.00 in/hr0.0 mm/hr 0.00 in0.0 mm
04:26 PM 64.6°F18.1°C -5537.2°C - 13.0 mph WNW20.9 kmh WNW 18.1 mph29.1 kmh 24.92 in843.9 mb 0.00 in0.0 mm 0.00 in/hr0.0 mm/hr 0.00 in0.0 mm
04:31 PM 65.3°F18.5°C -5537.2°C - 11.0 mph W17.7 kmh W 19.9 mph32.0 kmh 24.92 in843.9 mb 0.00 in0.0 mm 0.00 in/hr0.0 mm/hr 0.00 in0.0 mm
04:36 PM 64.6°F18.1°C -5537.2°C - 12.0 mph WSW19.3 kmh WSW 23.7 mph38.1 kmh 24.92 in843.9 mb 0.00 in0.0 mm 0.00 in/hr0.0 mm/hr 0.00 in0.0 mm
04:41 PM 64.8°F18.2°C -5537.2°C - 12.0 mph WSW19.3 kmh WSW 19.9 mph32.0 kmh 24.92 in843.9 mb 0.00 in0.0 mm 0.00 in/hr0.0 mm/hr 0.00 in0.0 mm
04:46 PM 64.2°F17.9°C -5537.2°C - 13.0 mph SW20.9 kmh SW 27.1 mph43.6 kmh 24.92 in843.9 mb 0.00 in0.0 mm 0.00 in/hr0.0 mm/hr 0.00 in0.0 mm
04:51 PM 64.0°F17.8°C -5537.2°C - 14.0 mph WSW22.5 kmh WSW 28.4 mph45.7 kmh 24.92 in843.9 mb 0.00 in0.0 mm 0.00 in/hr0.0 mm/hr 0.00 in0.0 mm
04:56 PM 65.7°F18.7°C -5537.2°C - 12.0 mph WSW19.3 kmh WSW 27.1 mph43.6 kmh 24.92 in843.9 mb 0.00 in0.0 mm 0.00 in/hr0.0 mm/hr 0.00 in0.0 mm
05:01 PM 63.9°F17.7°C -5537.2°C - 12.0 mph WSW19.3 kmh WSW 24.8 mph39.9 kmh 24.92 in843.9 mb 0.00 in0.0 mm 0.00 in/hr0.0 mm/hr 0.00 in0.0 mm
05:06 PM 64.6°F18.1°C -5537.2°C - 13.0 mph WSW20.9 kmh WSW 20.1 mph32.3 kmh 24.92 in843.9 mb 0.00 in0.0 mm 0.00 in/hr0.0 mm/hr 0.00 in0.0 mm
05:11 PM 64.2°F17.9°C -5537.2°C - 12.0 mph SW19.3 kmh SW 19.5 mph31.4 kmh 24.92 in843.9 mb 0.00 in0.0 mm 0.00 in/hr0.0 mm/hr 0.00 in0.0 mm
05:16 PM 63.3°F17.4°C -5537.2°C - 13.0 mph SW20.9 kmh SW 23.7 mph38.1 kmh 24.92 in843.9 mb 0.00 in0.0 mm 0.00 in/hr0.0 mm/hr 0.00 in0.0 mm
05:21 PM 63.9°F17.7°C -5537.2°C - 13.0 mph SW20.9 kmh SW 19.9 mph32.0 kmh 24.92 in843.9 mb 0.00 in0.0 mm 0.00 in/hr0.0 mm/hr 0.00 in0.0 mm
05:26 PM 64.2°F17.9°C -5537.2°C - 12.0 mph SW19.3 kmh SW 20.1 mph32.3 kmh 24.92 in843.9 mb 0.00 in0.0 mm 0.00 in/hr0.0 mm/hr 0.00 in0.0 mm
05:31 PM 64.4°F18.0°C -5537.2°C - 12.0 mph WSW19.3 kmh WSW 22.4 mph36.0 kmh 24.92 in843.9 mb 0.00 in0.0 mm 0.00 in/hr0.0 mm/hr 0.00 in0.0 mm
05:36 PM 63.7°F17.6°C -5537.2°C - 15.0 mph SW24.1 kmh SW 25.7 mph41.4 kmh 24.92 in843.9 mb 0.00 in0.0 mm 0.00 in/hr0.0 mm/hr 0.00 in0.0 mm
05:41 PM 64.6°F18.1°C -5537.2°C - 17.0 mph SW27.4 kmh SW 26.2 mph42.2 kmh 24.92 in843.9 mb 0.00 in0.0 mm 0.00 in/hr0.0 mm/hr 0.00 in0.0 mm
05:46 PM 63.9°F17.7°C -5537.2°C - 15.0 mph WSW24.1 kmh WSW 25.7 mph41.4 kmh 24.92 in843.9 mb 0.00 in0.0 mm 0.00 in/hr0.0 mm/hr 0.00 in0.0 mm
05:51 PM 64.2°F17.9°C -5537.2°C - 11.0 mph W17.7 kmh W 17.7 mph28.5 kmh 24.92 in843.9 mb 0.00 in0.0 mm 0.00 in/hr0.0 mm/hr 0.00 in0.0 mm
05:56 PM 64.2°F17.9°C -5537.2°C - 10.0 mph WSW16.1 kmh WSW 19.5 mph31.4 kmh 24.92 in843.9 mb 0.00 in0.0 mm 0.00 in/hr0.0 mm/hr 0.00 in0.0 mm
06:01 PM 64.2°F17.9°C -5537.2°C - 10.0 mph WSW16.1 kmh WSW 18.6 mph29.9 kmh 24.92 in843.9 mb 0.00 in0.0 mm 0.00 in/hr0.0 mm/hr 0.00 in0.0 mm
06:06 PM 64.2°F17.9°C -5537.2°C - 10.0 mph WSW16.1 kmh WSW 19.0 mph30.6 kmh 24.92 in843.9 mb 0.00 in0.0 mm 0.00 in/hr0.0 mm/hr 0.00 in0.0 mm
06:11 PM 64.0°F17.8°C -5537.2°C - 12.0 mph WSW19.3 kmh WSW 22.4 mph36.0 kmh 24.92 in843.9 mb 0.00 in0.0 mm 0.00 in/hr0.0 mm/hr 0.00 in0.0 mm
06:17 PM 64.8°F18.2°C -5537.2°C - 11.0 mph SW17.7 kmh SW 14.3 mph23.0 kmh 24.92 in843.9 mb 0.00 in0.0 mm 0.00 in/hr0.0 mm/hr 0.00 in0.0 mm
06:22 PM 63.1°F17.3°C -5537.2°C - 11.0 mph W17.7 kmh W 22.8 mph36.7 kmh 24.92 in843.9 mb 0.00 in0.0 mm 0.00 in/hr0.0 mm/hr 0.00 in0.0 mm
06:27 PM 63.9°F17.7°C -5537.2°C - 14.0 mph WNW22.5 kmh WNW 23.7 mph38.1 kmh 24.92 in843.9 mb 0.00 in0.0 mm 0.00 in/hr0.0 mm/hr 0.00 in0.0 mm
06:32 PM 63.7°F17.6°C -5537.2°C - 16.0 mph WNW25.7 kmh WNW 29.1 mph46.8 kmh 24.92 in843.9 mb 0.00 in0.0 mm 0.00 in/hr0.0 mm/hr 0.00 in0.0 mm
06:37 PM 62.6°F17.0°C -5537.2°C - 18.0 mph W29.0 kmh W 24.8 mph39.9 kmh 24.92 in843.9 mb 0.00 in0.0 mm 0.00 in/hr0.0 mm/hr 0.00 in0.0 mm
06:42 PM 62.6°F17.0°C -5537.2°C - 16.0 mph WNW25.7 kmh WNW 20.1 mph32.3 kmh 24.92 in843.9 mb 0.00 in0.0 mm 0.00 in/hr0.0 mm/hr 0.00 in0.0 mm
06:47 PM 62.6°F17.0°C -5537.2°C - 13.0 mph WNW20.9 kmh WNW 24.4 mph39.3 kmh 24.92 in843.9 mb 0.00 in0.0 mm 0.00 in/hr0.0 mm/hr 0.00 in0.0 mm
06:52 PM 62.6°F17.0°C -5537.2°C - 13.0 mph W20.9 kmh W 19.9 mph32.0 kmh 24.92 in843.9 mb 0.00 in0.0 mm 0.00 in/hr0.0 mm/hr 0.00 in0.0 mm
06:57 PM 62.4°F16.9°C -5537.2°C - 12.0 mph W19.3 kmh W 17.2 mph27.7 kmh 24.92 in843.9 mb 0.00 in0.0 mm 0.00 in/hr0.0 mm/hr 0.00 in0.0 mm
07:02 PM 62.2°F16.8°C -5537.2°C - 11.0 mph W17.7 kmh W 21.0 mph33.8 kmh 24.92 in843.9 mb 0.00 in0.0 mm 0.00 in/hr0.0 mm/hr 0.00 in0.0 mm
07:07 PM 62.2°F16.8°C -5537.2°C - 10.0 mph W16.1 kmh W 13.4 mph21.6 kmh 24.92 in843.9 mb 0.00 in0.0 mm 0.00 in/hr0.0 mm/hr 0.00 in0.0 mm
07:12 PM 62.1°F16.7°C -5537.2°C - 9.0 mph WSW14.5 kmh WSW 19.9 mph32.0 kmh 24.92 in843.9 mb 0.00 in0.0 mm 0.00 in/hr0.0 mm/hr 0.00 in0.0 mm
07:17 PM 61.9°F16.6°C -5537.2°C - 9.0 mph WSW14.5 kmh WSW 15.2 mph24.5 kmh 24.92 in843.9 mb 0.00 in0.0 mm 0.00 in/hr0.0 mm/hr 0.00 in0.0 mm
07:22 PM 61.7°F16.5°C -5537.2°C - 9.0 mph WSW14.5 kmh WSW 16.3 mph26.2 kmh 24.92 in843.9 mb 0.00 in0.0 mm 0.00 in/hr0.0 mm/hr 0.00 in0.0 mm
07:27 PM 61.3°F16.3°C -5537.2°C - 9.0 mph WSW14.5 kmh WSW 15.2 mph24.5 kmh 24.92 in843.9 mb 0.00 in0.0 mm 0.00 in/hr0.0 mm/hr 0.00 in0.0 mm
07:32 PM 61.0°F16.1°C -5537.2°C - 10.0 mph W16.1 kmh W 20.6 mph33.2 kmh 24.92 in843.9 mb 0.00 in0.0 mm 0.00 in/hr0.0 mm/hr 0.00 in0.0 mm
07:37 PM 60.8°F16.0°C -5537.2°C - 12.0 mph WNW19.3 kmh WNW 21.5 mph34.6 kmh 24.92 in843.9 mb 0.00 in0.0 mm 0.00 in/hr0.0 mm/hr 0.00 in0.0 mm
07:42 PM 60.6°F15.9°C -5537.2°C - 14.0 mph WNW22.5 kmh WNW 27.1 mph43.6 kmh 24.95 in844.9 mb 0.00 in0.0 mm 0.00 in/hr0.0 mm/hr 0.00 in0.0 mm
07:47 PM 60.6°F15.9°C -5537.2°C - 14.0 mph WNW22.5 kmh WNW 21.9 mph35.2 kmh 24.95 in844.9 mb 0.00 in0.0 mm 0.00 in/hr0.0 mm/hr 0.00 in0.0 mm
07:52 PM 60.4°F15.8°C -5537.2°C - 14.0 mph W22.5 kmh W 24.4 mph39.3 kmh 24.95 in844.9 mb 0.00 in0.0 mm 0.00 in/hr0.0 mm/hr 0.00 in0.0 mm
07:57 PM 60.4°F15.8°C -5537.2°C - 12.0 mph W19.3 kmh W 19.5 mph31.4 kmh 24.95 in844.9 mb 0.00 in0.0 mm 0.00 in/hr0.0 mm/hr 0.00 in0.0 mm
08:02 PM 59.9°F15.5°C -5537.2°C - 10.0 mph W16.1 kmh W 14.3 mph23.0 kmh 24.95 in844.9 mb 0.00 in0.0 mm 0.00 in/hr0.0 mm/hr 0.00 in0.0 mm
08:07 PM 60.1°F15.6°C -5537.2°C - 12.0 mph W19.3 kmh W 20.6 mph33.2 kmh 24.95 in844.9 mb 0.00 in0.0 mm 0.00 in/hr0.0 mm/hr 0.00 in0.0 mm
08:12 PM 59.7°F15.4°C -5537.2°C - 14.0 mph W22.5 kmh W 20.6 mph33.2 kmh 24.95 in844.9 mb 0.00 in0.0 mm 0.00 in/hr0.0 mm/hr 0.00 in0.0 mm
08:17 PM 59.7°F15.4°C -5537.2°C - 13.0 mph W20.9 kmh W 21.0 mph33.8 kmh 24.95 in844.9 mb 0.00 in0.0 mm 0.00 in/hr0.0 mm/hr 0.00 in0.0 mm
08:22 PM 59.4°F15.2°C -5537.2°C - 12.0 mph WNW19.3 kmh WNW 20.1 mph32.3 kmh 24.95 in844.9 mb 0.00 in0.0 mm 0.00 in/hr0.0 mm/hr 0.00 in0.0 mm
08:27 PM 58.8°F14.9°C -5537.2°C - 10.0 mph WNW16.1 kmh WNW 15.4 mph24.8 kmh 24.95 in844.9 mb 0.00 in0.0 mm 0.00 in/hr0.0 mm/hr 0.00 in0.0 mm
08:32 PM 57.7°F14.3°C -5537.2°C - 12.0 mph NW19.3 kmh NW 20.1 mph32.3 kmh 24.95 in844.9 mb 0.00 in0.0 mm 0.00 in/hr0.0 mm/hr 0.00 in0.0 mm
08:37 PM 57.4°F14.1°C -5537.2°C - 15.0 mph NW24.1 kmh NW 21.9 mph35.2 kmh 24.95 in844.9 mb 0.00 in0.0 mm 0.00 in/hr0.0 mm/hr 0.00 in0.0 mm
08:42 PM 56.8°F13.8°C -5537.2°C - 14.0 mph NW22.5 kmh NW 20.1 mph32.3 kmh 24.95 in844.9 mb 0.00 in0.0 mm 0.00 in/hr0.0 mm/hr 0.00 in0.0 mm
08:47 PM 56.7°F13.7°C -5537.2°C - 13.0 mph NW20.9 kmh NW 17.2 mph27.7 kmh 24.95 in844.9 mb 0.00 in0.0 mm 0.00 in/hr0.0 mm/hr 0.00 in0.0 mm
08:52 PM 56.5°F13.6°C -5537.2°C - 13.0 mph NW20.9 kmh NW 19.9 mph32.0 kmh 24.95 in844.9 mb 0.00 in0.0 mm 0.00 in/hr0.0 mm/hr 0.00 in0.0 mm
08:57 PM 56.1°F13.4°C -5537.2°C - 15.0 mph NW24.1 kmh NW 21.9 mph35.2 kmh 24.98 in845.9 mb 0.00 in0.0 mm 0.00 in/hr0.0 mm/hr 0.00 in0.0 mm
09:02 PM 55.8°F13.2°C -5537.2°C - 16.0 mph NW25.7 kmh NW 21.9 mph35.2 kmh 24.98 in845.9 mb 0.00 in0.0 mm 0.00 in/hr0.0 mm/hr 0.00 in0.0 mm
09:07 PM 55.4°F13.0°C -5537.2°C - 16.0 mph NW25.7 kmh NW 21.5 mph34.6 kmh 24.98 in845.9 mb 0.00 in0.0 mm 0.00 in/hr0.0 mm/hr 0.00 in0.0 mm
09:12 PM 55.0°F12.8°C -5537.2°C - 15.0 mph NW24.1 kmh NW 22.4 mph36.0 kmh 24.98 in845.9 mb 0.00 in0.0 mm 0.00 in/hr0.0 mm/hr 0.00 in0.0 mm
09:17 PM 54.7°F12.6°C -5537.2°C - 14.0 mph NW22.5 kmh NW 21.0 mph33.8 kmh 24.98 in845.9 mb 0.00 in0.0 mm 0.00 in/hr0.0 mm/hr 0.00 in0.0 mm
09:22 PM 54.5°F12.5°C -5537.2°C - 13.0 mph NW20.9 kmh NW 21.0 mph33.8 kmh 24.98 in845.9 mb 0.00 in0.0 mm 0.00 in/hr0.0 mm/hr 0.00 in0.0 mm
09:27 PM 54.1°F12.3°C -5537.2°C - 13.0 mph NW20.9 kmh NW 19.9 mph32.0 kmh 24.98 in845.9 mb 0.00 in0.0 mm 0.00 in/hr0.0 mm/hr 0.00 in0.0 mm
09:32 PM 54.1°F12.3°C -5537.2°C - 14.0 mph WNW22.5 kmh WNW 21.9 mph35.2 kmh 24.98 in845.9 mb 0.00 in0.0 mm 0.00 in/hr0.0 mm/hr 0.00 in0.0 mm
09:37 PM 53.6°F12.0°C -5537.2°C - 12.0 mph NW19.3 kmh NW 17.2 mph27.7 kmh 24.98 in845.9 mb 0.00 in0.0 mm 0.00 in/hr0.0 mm/hr 0.00 in0.0 mm
09:42 PM 53.2°F11.8°C -5537.2°C - 12.0 mph NW19.3 kmh NW 21.0 mph33.8 kmh 25.01 in846.9 mb 0.00 in0.0 mm 0.00 in/hr0.0 mm/hr 0.00 in0.0 mm
09:47 PM 53.2°F11.8°C -5537.2°C - 12.0 mph NW19.3 kmh NW 16.3 mph26.2 kmh 25.01 in846.9 mb 0.00 in0.0 mm 0.00 in/hr0.0 mm/hr 0.00 in0.0 mm
09:52 PM 52.9°F11.6°C -5537.2°C - 12.0 mph WNW19.3 kmh WNW 15.9 mph25.6 kmh 25.01 in846.9 mb 0.00 in0.0 mm 0.00 in/hr0.0 mm/hr 0.00 in0.0 mm
09:57 PM 52.7°F11.5°C -5537.2°C - 11.0 mph WNW17.7 kmh WNW 16.3 mph26.2 kmh 25.01 in846.9 mb 0.00 in0.0 mm 0.00 in/hr0.0 mm/hr 0.00 in0.0 mm
10:02 PM 52.5°F11.4°C -5537.2°C - 12.0 mph WNW19.3 kmh WNW 19.9 mph32.0 kmh 25.01 in846.9 mb 0.00 in0.0 mm 0.00 in/hr0.0 mm/hr 0.00 in0.0 mm
10:07 PM 52.5°F11.4°C -5537.2°C - 11.0 mph WNW17.7 kmh WNW 13.9 mph22.4 kmh 25.01 in846.9 mb 0.00 in0.0 mm 0.00 in/hr0.0 mm/hr 0.00 in0.0 mm
10:12 PM 52.2°F11.2°C -5537.2°C - 10.0 mph WNW16.1 kmh WNW 13.9 mph22.4 kmh 25.04 in848.0 mb 0.00 in0.0 mm 0.00 in/hr0.0 mm/hr 0.00 in0.0 mm
10:18 PM 52.0°F11.1°C -5537.2°C - 10.0 mph NW16.1 kmh NW 14.3 mph23.0 kmh 25.04 in848.0 mb 0.00 in0.0 mm 0.00 in/hr0.0 mm/hr 0.00 in0.0 mm
10:23 PM 51.6°F10.9°C -5537.2°C - 11.0 mph WNW17.7 kmh WNW 18.1 mph29.1 kmh 25.04 in848.0 mb 0.00 in0.0 mm 0.00 in/hr0.0 mm/hr 0.00 in0.0 mm
10:28 PM 51.3°F10.7°C -5537.2°C - 11.0 mph NW17.7 kmh NW 14.3 mph23.0 kmh 25.04 in848.0 mb 0.00 in0.0 mm 0.00 in/hr0.0 mm/hr 0.00 in0.0 mm
10:33 PM 51.1°F10.6°C -5537.2°C - 9.0 mph NW14.5 kmh NW 12.5 mph20.1 kmh 25.04 in848.0 mb 0.00 in0.0 mm 0.00 in/hr0.0 mm/hr 0.00 in0.0 mm
10:38 PM 50.7°F10.4°C -5537.2°C - 8.0 mph NW12.9 kmh NW 11.6 mph18.7 kmh 25.04 in848.0 mb 0.00 in0.0 mm 0.00 in/hr0.0 mm/hr 0.00 in0.0 mm
10:43 PM 50.4°F10.2°C -5537.2°C - 8.0 mph NW12.9 kmh NW 11.2 mph18.0 kmh 25.04 in848.0 mb 0.00 in0.0 mm 0.00 in/hr0.0 mm/hr 0.00 in0.0 mm
10:48 PM 50.4°F10.2°C -5537.2°C - 8.0 mph WNW12.9 kmh WNW 12.5 mph20.1 kmh 25.04 in848.0 mb 0.00 in0.0 mm 0.00 in/hr0.0 mm/hr 0.00 in0.0 mm
10:53 PM 50.2°F10.1°C -5537.2°C - 8.0 mph WNW12.9 kmh WNW 13.4 mph21.6 kmh 25.04 in848.0 mb 0.00 in0.0 mm 0.00 in/hr0.0 mm/hr 0.00 in0.0 mm
10:58 PM 50.0°F10.0°C -5537.2°C - 8.0 mph WNW12.9 kmh WNW 11.0 mph17.7 kmh 25.04 in848.0 mb 0.00 in0.0 mm 0.00 in/hr0.0 mm/hr 0.00 in0.0 mm
11:03 PM 49.8°F9.9°C -5537.2°C - 7.0 mph WNW11.3 kmh WNW 10.5 mph16.9 kmh 25.04 in848.0 mb 0.00 in0.0 mm 0.00 in/hr0.0 mm/hr 0.00 in0.0 mm
11:08 PM 49.5°F9.7°C -5537.2°C - 6.0 mph WNW9.7 kmh WNW 9.6 mph15.4 kmh 25.04 in848.0 mb 0.00 in0.0 mm 0.00 in/hr0.0 mm/hr 0.00 in0.0 mm
11:13 PM 49.1°F9.5°C -5537.2°C - 5.0 mph WNW8.0 kmh WNW 8.3 mph13.4 kmh 25.04 in848.0 mb 0.00 in0.0 mm 0.00 in/hr0.0 mm/hr 0.00 in0.0 mm
11:18 PM 49.1°F9.5°C -5537.2°C - 4.0 mph W6.4 kmh W 6.9 mph11.1 kmh 25.04 in848.0 mb 0.00 in0.0 mm 0.00 in/hr0.0 mm/hr 0.00 in0.0 mm
11:23 PM 49.5°F9.7°C -5537.2°C - 4.0 mph W6.4 kmh W 8.3 mph13.4 kmh 25.04 in848.0 mb 0.00 in0.0 mm 0.00 in/hr0.0 mm/hr 0.00 in0.0 mm
11:28 PM 49.1°F9.5°C -5537.2°C - 4.0 mph WSW6.4 kmh WSW 7.4 mph11.9 kmh 25.07 in849.0 mb 0.00 in0.0 mm 0.00 in/hr0.0 mm/hr 0.00 in0.0 mm
11:33 PM 48.9°F9.4°C -5537.2°C - 4.0 mph WSW6.4 kmh WSW 8.7 mph14.0 kmh 25.07 in849.0 mb 0.00 in0.0 mm 0.00 in/hr0.0 mm/hr 0.00 in0.0 mm
11:38 PM 48.6°F9.2°C -5537.2°C - 5.0 mph SW8.0 kmh SW 8.3 mph13.4 kmh 25.07 in849.0 mb 0.00 in0.0 mm 0.00 in/hr0.0 mm/hr 0.00 in0.0 mm
11:43 PM 48.4°F9.1°C -5537.2°C - 5.0 mph SW8.0 kmh SW 6.9 mph11.1 kmh 25.07 in849.0 mb 0.00 in0.0 mm 0.00 in/hr0.0 mm/hr 0.00 in0.0 mm
11:48 PM 48.2°F9.0°C -5537.2°C - 4.0 mph WSW6.4 kmh WSW 6.3 mph10.1 kmh 25.07 in849.0 mb 0.00 in0.0 mm 0.00 in/hr0.0 mm/hr 0.00 in0.0 mm
11:53 PM 48.4°F9.1°C -5537.2°C - 4.0 mph WSW6.4 kmh WSW 6.9 mph11.1 kmh 25.07 in849.0 mb 0.00 in0.0 mm 0.00 in/hr0.0 mm/hr 0.00 in0.0 mm
11:58 PM 48.2°F9.0°C -5537.2°C - 4.0 mph WSW6.4 kmh WSW 5.4 mph8.7 kmh 25.07 in849.0 mb 0.00 in0.0 mm 0.00 in/hr0.0 mm/hr 0.00 in0.0 mm